createdAt,value
2022-09-14T00:01:25.225Z,1.00
2022-09-14T00:03:59.052Z,1.30
2022-09-14T00:06:27.164Z,0.90
2022-09-14T00:08:55.408Z,1.08
2022-09-14T00:11:23.885Z,1.00
2022-09-14T00:13:51.239Z,1.13
2022-09-14T00:16:25.137Z,0.85
2022-09-14T00:18:57.203Z,1.00
2022-09-14T00:21:24.900Z,0.88
2022-09-14T00:23:51.930Z,1.02
2022-09-14T00:26:21.174Z,0.90
2022-09-14T00:28:50.696Z,1.27
2022-09-14T00:31:19.151Z,1.30
2022-09-14T00:33:48.161Z,1.20
2022-09-14T00:36:23.569Z,1.10
2022-09-14T00:38:51.625Z,0.95
2022-09-14T00:41:21.507Z,1.10
2022-09-14T00:44:11.366Z,1.05
2022-09-14T00:46:39.530Z,1.33
2022-09-14T00:49:23.215Z,1.30
2022-09-14T00:51:58.200Z,1.27
2022-09-14T00:54:25.915Z,1.27
2022-09-14T00:56:54.716Z,1.02
2022-09-14T00:59:25.797Z,1.20
2022-09-14T01:01:52.622Z,1.10
2022-09-14T01:04:19.778Z,1.15
2022-09-14T01:07:16.631Z,0.90
2022-09-14T01:10:04.991Z,1.10
2022-09-14T01:12:40.581Z,1.13
2022-09-14T01:15:11.126Z,1.40
2022-09-14T01:18:01.511Z,2.20
2022-09-14T01:20:37.363Z,1.98
2022-09-14T01:23:28.970Z,2.17
2022-09-14T01:26:21.916Z,2.20
2022-09-14T01:29:01.288Z,2.20
2022-09-14T01:31:51.895Z,2.65
2022-09-14T01:34:32.935Z,1.83
2022-09-14T01:37:16.696Z,2.35
2022-09-14T01:39:51.087Z,2.17
2022-09-14T01:42:21.078Z,2.08
2022-09-14T01:44:52.845Z,1.85
2022-09-14T01:47:26.409Z,1.35
2022-09-14T01:49:59.498Z,1.58
2022-09-14T01:52:39.373Z,1.30
2022-09-14T01:55:09.746Z,1.33
2022-09-14T01:58:10.595Z,1.20
2022-09-14T02:00:42.679Z,1.50
2022-09-14T02:03:31.740Z,1.38
2022-09-14T02:06:35.475Z,1.45
2022-09-14T02:09:04.028Z,1.80
2022-09-14T02:11:30.950Z,1.63
2022-09-14T02:13:57.802Z,1.55
2022-09-14T02:16:26.177Z,1.92
2022-09-14T02:18:53.252Z,1.67
2022-09-14T02:21:29.430Z,1.98
2022-09-14T02:23:56.891Z,1.58
2022-09-14T02:26:24.238Z,1.63
2022-09-14T02:28:55.900Z,1.58
2022-09-14T02:31:34.037Z,1.50
2022-09-14T02:34:13.777Z,1.52
2022-09-14T02:36:53.692Z,1.75
2022-09-14T02:39:45.644Z,1.70
2022-09-14T02:42:37.192Z,1.70
2022-09-14T02:45:31.770Z,1.80
2022-09-14T02:48:23.517Z,1.70
2022-09-14T02:51:08.845Z,1.35
2022-09-14T02:53:46.298Z,1.60
2022-09-14T02:56:15.105Z,1.58
2022-09-14T02:58:43.993Z,1.75
2022-09-14T03:01:13.812Z,2.05
2022-09-14T03:03:40.926Z,1.58
2022-09-14T03:06:07.811Z,1.63
2022-09-14T03:08:35.275Z,1.90
2022-09-14T03:11:02.827Z,1.85
2022-09-14T03:13:29.620Z,1.52
2022-09-14T03:15:56.607Z,1.75
2022-09-14T03:18:23.423Z,1.58
2022-09-14T03:20:50.256Z,1.80
2022-09-14T03:23:16.998Z,2.13
2022-09-14T03:25:44.648Z,2.50
2022-09-14T03:28:12.592Z,1.77
2022-09-14T03:30:39.652Z,1.83
2022-09-14T03:33:06.500Z,2.00
2022-09-14T03:35:33.927Z,1.88
2022-09-14T03:38:03.114Z,1.85
2022-09-14T03:40:30.607Z,1.88
2022-09-14T03:42:57.893Z,1.70
2022-09-14T03:45:25.158Z,1.77
2022-09-14T03:47:51.962Z,2.00
2022-09-14T03:50:19.753Z,1.60
2022-09-14T03:52:46.773Z,1.50
2022-09-14T03:55:13.534Z,1.58
2022-09-14T03:57:40.308Z,1.80
2022-09-14T04:00:07.830Z,1.70
2022-09-14T04:02:41.240Z,1.40
2022-09-14T04:05:08.492Z,1.80
2022-09-14T04:07:36.109Z,1.58
2022-09-14T04:10:05.634Z,1.77
2022-09-14T04:12:39.639Z,2.22
2022-09-14T04:15:07.307Z,1.70
2022-09-14T04:17:34.849Z,1.33
2022-09-14T04:20:01.673Z,1.70
2022-09-14T04:22:28.414Z,1.48
2022-09-14T04:24:55.183Z,1.63
2022-09-14T04:27:21.879Z,1.85
2022-09-14T04:29:51.784Z,1.90
2022-09-14T04:32:18.594Z,1.73
2022-09-14T04:34:45.354Z,1.80
2022-09-14T04:37:12.134Z,2.08
2022-09-14T04:39:38.920Z,1.67
2022-09-14T04:42:06.062Z,2.45
2022-09-14T04:44:32.781Z,2.00
2022-09-14T04:46:59.759Z,2.58
2022-09-14T04:49:26.565Z,2.03
2022-09-14T04:51:53.846Z,1.75
2022-09-14T04:54:20.700Z,2.00
2022-09-14T04:56:47.701Z,2.28
2022-09-14T04:59:15.417Z,2.30
2022-09-14T05:01:45.437Z,1.98
2022-09-14T05:04:13.005Z,2.25
2022-09-14T05:06:42.305Z,2.08
2022-09-14T05:09:15.807Z,2.38
2022-09-14T05:11:42.906Z,2.58
2022-09-14T05:14:13.028Z,2.47
2022-09-14T05:16:41.275Z,2.58
2022-09-14T05:19:11.497Z,2.53
2022-09-14T05:21:38.751Z,2.50
2022-09-14T05:24:16.850Z,2.83
2022-09-14T05:26:45.047Z,2.55
2022-09-14T05:29:17.894Z,2.40
2022-09-14T05:32:32.118Z,2.42
2022-09-14T05:34:42.199Z,2.50
2022-09-14T05:37:58.699Z,2.55
2022-09-14T05:40:25.594Z,2.55
2022-09-14T06:01:15.349Z,2.30
2022-09-14T06:04:51.259Z,2.50
2022-09-14T06:13:38.541Z,2.38
2022-09-14T06:20:12.899Z,2.25
2022-09-14T06:22:55.651Z,1.92
2022-09-14T06:25:56.022Z,2.10
2022-09-14T06:29:23.041Z,2.53
2022-09-14T06:47:26.313Z,2.08
2022-09-14T06:53:44.518Z,1.65
2022-09-14T06:57:08.162Z,2.10
2022-09-14T07:00:12.195Z,1.83
2022-09-14T07:05:32.004Z,2.03
2022-09-14T07:08:51.244Z,1.85
2022-09-14T07:15:01.887Z,2.40
2022-09-14T07:18:05.130Z,2.28
2022-09-14T07:21:17.871Z,2.00
2022-09-14T07:24:00.446Z,1.85
2022-09-14T07:26:42.391Z,1.77
2022-09-14T07:29:43.681Z,2.05
2022-09-14T07:32:10.785Z,1.65
2022-09-14T07:34:53.080Z,2.33
2022-09-14T07:38:09.313Z,1.88
2022-09-14T07:40:48.305Z,1.92
2022-09-14T07:43:35.279Z,1.80
2022-09-14T07:57:59.351Z,1.90
2022-09-14T08:01:22.070Z,1.58
2022-09-14T08:04:52.417Z,2.13
2022-09-14T08:08:04.038Z,2.10
2022-09-14T08:11:02.910Z,2.03
2022-09-14T08:14:21.987Z,1.90
2022-09-14T08:16:58.733Z,1.90
2022-09-14T08:19:57.962Z,1.60
2022-09-14T08:23:07.746Z,1.60
2022-09-14T08:26:06.563Z,2.00
2022-09-14T08:32:50.883Z,1.77
2022-09-14T08:35:53.893Z,1.55
2022-09-14T08:38:45.572Z,2.10
2022-09-14T08:41:50.416Z,1.73
2022-09-14T08:44:38.023Z,1.60
2022-09-14T08:47:36.190Z,1.70
2022-09-14T09:06:22.903Z,1.40
2022-09-14T09:09:18.562Z,1.70
2022-09-14T09:33:00.257Z,1.60
2022-09-14T09:36:15.461Z,1.65
2022-09-14T09:38:58.350Z,1.40
2022-09-14T09:45:53.209Z,1.30
2022-09-14T09:48:37.964Z,1.40
2022-09-14T09:56:02.799Z,1.40
2022-09-14T09:59:40.039Z,1.30
2022-09-14T10:06:25.640Z,1.50
2022-09-14T10:08:54.099Z,1.60
2022-09-14T10:24:40.922Z,1.52
2022-09-14T10:28:13.425Z,1.20
2022-09-14T10:34:24.847Z,1.30
2022-09-14T10:37:38.497Z,1.48
2022-09-14T10:44:21.695Z,1.23
2022-09-14T10:58:54.854Z,1.52
2022-09-14T11:02:09.384Z,1.58
2022-09-14T11:09:49.556Z,1.10
2022-09-14T11:12:52.819Z,1.10
2022-09-14T11:20:19.047Z,1.27
2022-09-14T11:23:41.803Z,1.30
2022-09-14T11:26:58.963Z,0.90
2022-09-14T11:30:27.502Z,1.13
2022-09-14T11:33:21.054Z,1.13
2022-09-14T11:36:09.407Z,1.20
2022-09-14T12:08:00.030Z,1.30
2022-09-14T12:11:17.904Z,1.35
2022-09-14T12:13:44.953Z,1.42
2022-09-14T12:16:14.862Z,1.02
2022-09-14T12:19:17.257Z,1.20
2022-09-14T12:22:23.509Z,1.30
2022-09-14T12:25:25.773Z,1.15
2022-09-14T12:37:11.266Z,1.30
2022-09-14T12:40:48.252Z,1.58
2022-09-14T12:44:15.868Z,1.20
2022-09-14T12:53:57.260Z,1.30
2022-09-14T13:00:17.725Z,1.80
2022-09-14T13:07:39.262Z,1.67
2022-09-14T13:11:00.751Z,1.60
2022-09-14T13:13:49.006Z,1.88
2022-09-14T13:21:04.155Z,1.25
2022-09-14T13:23:45.745Z,1.40
2022-09-14T13:26:31.576Z,1.20
2022-09-14T13:29:14.347Z,1.05
2022-09-14T13:32:06.613Z,1.38
2022-09-14T13:35:09.124Z,1.25
2022-09-14T13:38:41.130Z,1.23
2022-09-14T13:44:56.095Z,1.17
2022-09-14T13:55:18.196Z,1.00
2022-09-14T13:58:06.587Z,1.10
2022-09-14T14:01:04.462Z,0.95
2022-09-14T14:04:22.128Z,0.82
2022-09-14T14:07:06.293Z,0.75
2022-09-14T14:10:44.345Z,1.10
2022-09-14T14:13:32.537Z,1.00
2022-09-14T14:17:10.893Z,0.88
2022-09-14T14:19:49.495Z,0.90
2022-09-14T14:26:52.651Z,0.70
2022-09-14T14:32:54.859Z,0.52
2022-09-14T14:36:12.462Z,0.52
2022-09-14T14:38:33.580Z,0.80
2022-09-14T14:41:00.823Z,0.68
2022-09-14T15:00:46.173Z,0.80
2022-09-14T15:03:52.023Z,0.70
2022-09-14T15:07:28.542Z,0.45
2022-09-14T15:10:46.261Z,0.60
2022-09-14T15:13:13.819Z,0.50
2022-09-14T15:16:31.446Z,0.68
2022-09-14T15:23:40.550Z,0.73
2022-09-14T15:26:13.555Z,0.40
2022-09-14T15:38:52.545Z,0.50
2022-09-14T15:41:22.402Z,0.45
2022-09-14T15:43:51.178Z,0.60
2022-09-14T15:47:03.279Z,0.68
2022-09-14T15:49:43.215Z,0.40
2022-09-14T15:52:32.163Z,0.50
2022-09-14T15:55:31.052Z,0.40
2022-09-14T15:58:13.457Z,0.40
2022-09-14T16:10:09.604Z,0.63
2022-09-14T16:12:53.858Z,0.43
2022-09-14T16:21:34.592Z,0.82
2022-09-14T16:33:23.432Z,0.50
2022-09-14T16:36:26.962Z,0.70
2022-09-14T16:39:06.013Z,0.60
2022-09-14T16:42:02.658Z,0.32
2022-09-14T16:44:53.087Z,0.52
2022-09-14T16:47:25.907Z,0.65
2022-09-14T16:49:53.267Z,0.60
2022-09-14T16:53:37.141Z,0.50
2022-09-14T17:00:58.287Z,0.60
2022-09-14T17:03:37.738Z,0.40
2022-09-14T17:07:35.095Z,0.40
2022-09-14T17:10:23.988Z,0.70
2022-09-14T17:13:23.325Z,0.50
2022-09-14T17:16:17.540Z,0.50
2022-09-14T17:18:45.659Z,0.50
2022-09-14T17:22:48.229Z,0.70
2022-09-14T17:25:23.701Z,0.70
2022-09-14T17:27:50.540Z,0.60
2022-09-14T17:30:24.814Z,0.80
2022-09-14T17:41:28.155Z,0.95
2022-09-14T17:47:29.259Z,0.80
2022-09-14T17:49:56.172Z,0.73
2022-09-14T17:52:30.133Z,1.08
2022-09-14T17:55:01.419Z,0.80
2022-09-14T17:57:54.181Z,0.95
2022-09-14T18:05:45.001Z,1.00
2022-09-14T18:08:39.286Z,1.13
2022-09-14T18:11:19.527Z,0.90
2022-09-14T18:13:48.840Z,0.77
2022-09-14T18:16:21.163Z,0.98
2022-09-14T18:25:43.498Z,1.02
2022-09-14T18:28:46.154Z,1.05
2022-09-14T18:32:14.648Z,1.60
2022-09-14T18:34:25.681Z,1.92
2022-09-14T18:37:10.744Z,1.27
2022-09-14T18:39:37.899Z,1.10
2022-09-14T18:42:29.627Z,1.00
2022-09-14T18:44:59.111Z,0.95
2022-09-14T18:47:33.456Z,0.90
2022-09-14T18:50:15.232Z,1.17
2022-09-14T18:52:42.015Z,1.73
2022-09-14T18:55:36.405Z,1.20
2022-09-14T18:58:03.302Z,0.90
2022-09-14T19:07:21.045Z,1.30
2022-09-14T19:09:47.845Z,1.08
2022-09-14T19:13:02.003Z,0.95
2022-09-14T19:15:32.589Z,0.95
2022-09-14T19:18:31.034Z,1.10
2022-09-14T19:21:07.037Z,0.88
2022-09-14T19:23:34.653Z,1.25
2022-09-14T19:30:38.424Z,1.10
2022-09-14T19:33:16.044Z,1.55
2022-09-14T19:35:53.363Z,1.10
2022-09-14T19:38:20.204Z,1.00
2022-09-14T19:40:53.611Z,1.00
2022-09-14T19:48:00.235Z,1.15
2022-09-14T19:51:03.412Z,1.23
2022-09-14T19:54:08.972Z,1.10
2022-09-14T19:56:42.167Z,0.90
2022-09-14T20:01:49.662Z,0.80
2022-09-14T20:07:50.422Z,1.10
2022-09-14T20:10:55.255Z,0.82
2022-09-14T20:13:26.570Z,1.00
2022-09-14T20:16:09.724Z,1.90
2022-09-14T20:18:36.764Z,1.73
2022-09-14T20:24:17.636Z,1.08
2022-09-14T20:35:56.062Z,1.10
2022-09-14T20:38:26.779Z,1.10
2022-09-14T20:40:59.402Z,1.05
2022-09-14T20:43:39.808Z,1.70
2022-09-14T20:46:08.227Z,1.48
2022-09-14T20:51:32.022Z,1.13
2022-09-14T20:54:23.072Z,1.40
2022-09-14T20:57:28.186Z,1.20
2022-09-14T21:00:27.074Z,1.80
2022-09-14T21:03:07.697Z,1.45
2022-09-14T21:05:34.730Z,1.40
2022-09-14T21:09:16.014Z,1.40
2022-09-14T21:11:56.403Z,1.55
2022-09-14T21:19:11.277Z,1.55
2022-09-14T21:21:39.293Z,1.27
2022-09-14T21:27:45.629Z,1.60
2022-09-14T21:30:15.767Z,1.30
2022-09-14T21:32:52.119Z,1.70
2022-09-14T21:35:38.815Z,2.05
2022-09-14T21:38:09.510Z,1.60
2022-09-14T21:40:50.381Z,1.67
2022-09-14T21:43:21.331Z,1.40
2022-09-14T21:49:50.710Z,1.23
2022-09-14T21:52:25.927Z,1.23
2022-09-14T21:54:52.679Z,1.27
2022-09-14T21:57:19.383Z,1.30
2022-09-14T21:59:46.217Z,1.13
2022-09-14T22:02:13.157Z,1.00
2022-09-14T22:04:40.056Z,1.05
2022-09-14T22:07:06.921Z,1.10
2022-09-14T22:09:33.809Z,1.05
2022-09-14T22:12:00.731Z,0.95
2022-09-14T22:14:29.682Z,1.27
2022-09-14T22:16:56.915Z,1.10
2022-09-14T22:19:28.283Z,1.30
2022-09-14T22:21:56.614Z,1.27
2022-09-14T22:24:37.083Z,1.40
2022-09-14T22:27:05.130Z,1.40
2022-09-14T22:29:31.989Z,1.20
2022-09-14T22:32:00.090Z,1.30
2022-09-14T22:34:27.308Z,1.20
2022-09-14T22:36:54.227Z,1.10
2022-09-14T22:39:21.069Z,1.10
2022-09-14T22:41:47.931Z,1.10
2022-09-14T22:44:14.859Z,1.80
2022-09-14T22:46:42.118Z,1.40
2022-09-14T22:49:09.687Z,1.52
2022-09-14T22:51:36.751Z,1.50
2022-09-14T22:54:04.460Z,1.38
2022-09-14T22:56:33.391Z,1.20
2022-09-14T22:59:02.171Z,1.60
2022-09-14T23:01:32.863Z,1.42
2022-09-14T23:04:05.365Z,1.38
2022-09-14T23:06:40.670Z,1.02
2022-09-14T23:09:10.262Z,1.30
2022-09-14T23:11:37.670Z,1.30
2022-09-14T23:14:04.494Z,1.58
2022-09-14T23:16:31.376Z,1.40
2022-09-14T23:19:00.808Z,1.48
2022-09-14T23:21:29.022Z,1.10
2022-09-14T23:24:02.665Z,1.38
2022-09-14T23:26:29.990Z,1.23
2022-09-14T23:28:59.384Z,1.23
2022-09-14T23:31:28.175Z,1.52
2022-09-14T23:33:58.318Z,1.23
2022-09-14T23:36:25.784Z,1.00
2022-09-14T23:38:53.233Z,0.90
2022-09-14T23:41:22.719Z,1.42
2022-09-14T23:43:49.761Z,1.13
2022-09-14T23:46:17.789Z,1.20
2022-09-14T23:48:45.075Z,1.10
2022-09-14T23:51:12.570Z,1.08
2022-09-14T23:53:40.516Z,1.35
2022-09-14T23:56:07.959Z,0.80
2022-09-14T23:58:35.333Z,0.90
